sensor_id;sensor_type;location;lat;lon;timestamp;P1;durP1;ratioP1;P2;durP2;ratioP2
26756;SDS011;23848;49.798;10.228;2023-02-17T00:01:27;46.33;;;29.60;;
26756;SDS011;23848;49.798;10.228;2023-02-17T00:03:55;47.25;;;29.00;;
26756;SDS011;23848;49.798;10.228;2023-02-17T00:06:25;46.33;;;28.75;;
26756;SDS011;23848;49.798;10.228;2023-02-17T00:08:54;44.55;;;28.45;;
26756;SDS011;23848;49.798;10.228;2023-02-17T00:11:23;46.47;;;27.25;;
26756;SDS011;23848;49.798;10.228;2023-02-17T00:13:52;41.20;;;26.25;;
26756;SDS011;23848;49.798;10.228;2023-02-17T00:16:23;43.40;;;27.85;;
26756;SDS011;23848;49.798;10.228;2023-02-17T00:18:53;44.20;;;28.60;;
26756;SDS011;23848;49.798;10.228;2023-02-17T00:21:22;44.35;;;26.58;;
26756;SDS011;23848;49.798;10.228;2023-02-17T00:23:51;42.28;;;26.40;;
26756;SDS011;23848;49.798;10.228;2023-02-17T00:26:20;37.92;;;25.75;;
26756;SDS011;23848;49.798;10.228;2023-02-17T00:28:48;39.83;;;24.52;;
26756;SDS011;23848;49.798;10.228;2023-02-17T00:31:17;36.55;;;23.98;;
26756;SDS011;23848;49.798;10.228;2023-02-17T00:33:47;38.00;;;24.05;;
26756;SDS011;23848;49.798;10.228;2023-02-17T00:36:17;35.20;;;23.33;;
26756;SDS011;23848;49.798;10.228;2023-02-17T00:38:46;32.17;;;21.85;;
26756;SDS011;23848;49.798;10.228;2023-02-17T00:41:15;32.58;;;22.13;;
26756;SDS011;23848;49.798;10.228;2023-02-17T00:43:43;35.60;;;22.23;;
26756;SDS011;23848;49.798;10.228;2023-02-17T00:46:11;31.85;;;20.30;;
26756;SDS011;23848;49.798;10.228;2023-02-17T00:48:40;28.88;;;19.83;;
26756;SDS011;23848;49.798;10.228;2023-02-17T00:51:08;28.08;;;18.00;;
26756;SDS011;23848;49.798;10.228;2023-02-17T00:53:38;26.92;;;17.67;;
26756;SDS011;23848;49.798;10.228;2023-02-17T00:56:07;30.33;;;20.70;;
26756;SDS011;23848;49.798;10.228;2023-02-17T00:58:35;28.58;;;19.45;;
26756;SDS011;23848;49.798;10.228;2023-02-17T01:01:04;29.88;;;18.83;;
26756;SDS011;23848;49.798;10.228;2023-02-17T01:03:32;31.30;;;18.40;;
26756;SDS011;23848;49.798;10.228;2023-02-17T01:06:03;29.25;;;20.23;;
26756;SDS011;23848;49.798;10.228;2023-02-17T01:08:32;29.08;;;18.05;;
26756;SDS011;23848;49.798;10.228;2023-02-17T01:11:02;28.58;;;18.40;;
26756;SDS011;23848;49.798;10.228;2023-02-17T01:13:31;27.83;;;18.27;;
26756;SDS011;23848;49.798;10.228;2023-02-17T01:15:59;25.20;;;17.13;;
26756;SDS011;23848;49.798;10.228;2023-02-17T01:18:27;20.15;;;14.23;;
26756;SDS011;23848;49.798;10.228;2023-02-17T01:20:55;19.35;;;12.70;;
26756;SDS011;23848;49.798;10.228;2023-02-17T01:23:24;21.63;;;14.85;;
26756;SDS011;23848;49.798;10.228;2023-02-17T01:25:52;17.33;;;11.75;;
26756;SDS011;23848;49.798;10.228;2023-02-17T01:28:22;16.25;;;11.25;;
26756;SDS011;23848;49.798;10.228;2023-02-17T01:30:50;17.38;;;10.45;;
26756;SDS011;23848;49.798;10.228;2023-02-17T01:33:18;14.98;;;10.60;;
26756;SDS011;23848;49.798;10.228;2023-02-17T01:35:47;13.68;;;8.68;;
26756;SDS011;23848;49.798;10.228;2023-02-17T01:38:15;13.30;;;8.93;;
26756;SDS011;23848;49.798;10.228;2023-02-17T01:40:47;14.68;;;8.25;;
26756;SDS011;23848;49.798;10.228;2023-02-17T01:43:15;13.82;;;8.73;;
26756;SDS011;23848;49.798;10.228;2023-02-17T01:45:51;11.57;;;8.25;;
26756;SDS011;23848;49.798;10.228;2023-02-17T01:48:20;12.93;;;8.00;;
26756;SDS011;23848;49.798;10.228;2023-02-17T01:50:49;14.52;;;8.25;;
26756;SDS011;23848;49.798;10.228;2023-02-17T01:53:19;12.15;;;7.70;;
26756;SDS011;23848;49.798;10.228;2023-02-17T01:55:49;13.43;;;8.38;;
26756;SDS011;23848;49.798;10.228;2023-02-17T01:58:18;11.90;;;7.95;;
26756;SDS011;23848;49.798;10.228;2023-02-17T02:00:47;12.73;;;8.15;;
26756;SDS011;23848;49.798;10.228;2023-02-17T02:03:17;13.98;;;8.32;;
26756;SDS011;23848;49.798;10.228;2023-02-17T02:05:45;13.05;;;8.00;;
26756;SDS011;23848;49.798;10.228;2023-02-17T02:08:14;11.13;;;8.10;;
26756;SDS011;23848;49.798;10.228;2023-02-17T02:10:42;12.38;;;7.55;;
26756;SDS011;23848;49.798;10.228;2023-02-17T02:13:10;13.15;;;8.32;;
26756;SDS011;23848;49.798;10.228;2023-02-17T02:15:41;11.75;;;7.22;;
26756;SDS011;23848;49.798;10.228;2023-02-17T02:18:15;11.25;;;7.85;;
26756;SDS011;23848;49.798;10.228;2023-02-17T02:23:44;11.02;;;7.47;;
26756;SDS011;23848;49.798;10.228;2023-02-17T02:26:28;12.88;;;7.85;;
26756;SDS011;23848;49.798;10.228;2023-02-17T02:29:17;10.73;;;7.40;;
26756;SDS011;23848;49.798;10.228;2023-02-17T02:31:54;12.40;;;7.70;;
26756;SDS011;23848;49.798;10.228;2023-02-17T02:34:29;10.95;;;6.65;;
26756;SDS011;23848;49.798;10.228;2023-02-17T02:36:59;10.57;;;7.35;;
26756;SDS011;23848;49.798;10.228;2023-02-17T02:39:31;11.80;;;7.30;;
26756;SDS011;23848;49.798;10.228;2023-02-17T02:42:02;11.13;;;7.07;;
26756;SDS011;23848;49.798;10.228;2023-02-17T02:44:32;9.27;;;6.80;;
26756;SDS011;23848;49.798;10.228;2023-02-17T02:47:02;10.35;;;6.78;;
26756;SDS011;23848;49.798;10.228;2023-02-17T02:49:32;9.82;;;6.57;;
26756;SDS011;23848;49.798;10.228;2023-02-17T02:52:03;10.15;;;6.30;;
26756;SDS011;23848;49.798;10.228;2023-02-17T02:54:37;10.95;;;6.72;;
26756;SDS011;23848;49.798;10.228;2023-02-17T02:57:19;10.30;;;7.05;;
26756;SDS011;23848;49.798;10.228;2023-02-17T02:59:56;10.93;;;6.63;;
26756;SDS011;23848;49.798;10.228;2023-02-17T03:02:27;11.35;;;6.88;;
26756;SDS011;23848;49.798;10.228;2023-02-17T03:04:58;8.90;;;6.05;;
26756;SDS011;23848;49.798;10.228;2023-02-17T03:07:30;10.07;;;6.20;;
26756;SDS011;23848;49.798;10.228;2023-02-17T03:10:00;13.07;;;6.80;;
26756;SDS011;23848;49.798;10.228;2023-02-17T03:12:28;11.18;;;6.63;;
26756;SDS011;23848;49.798;10.228;2023-02-17T03:14:58;11.00;;;6.70;;
26756;SDS011;23848;49.798;10.228;2023-02-17T03:17:29;10.13;;;6.40;;
26756;SDS011;23848;49.798;10.228;2023-02-17T03:19:59;13.30;;;7.07;;
26756;SDS011;23848;49.798;10.228;2023-02-17T03:22:29;11.63;;;7.18;;
26756;SDS011;23848;49.798;10.228;2023-02-17T03:24:58;9.27;;;6.47;;
26756;SDS011;23848;49.798;10.228;2023-02-17T03:27:27;10.90;;;6.80;;
26756;SDS011;23848;49.798;10.228;2023-02-17T03:29:55;15.02;;;7.00;;
26756;SDS011;23848;49.798;10.228;2023-02-17T03:32:24;12.05;;;7.15;;
26756;SDS011;23848;49.798;10.228;2023-02-17T03:34:52;10.88;;;6.43;;
26756;SDS011;23848;49.798;10.228;2023-02-17T03:37:22;10.55;;;6.72;;
26756;SDS011;23848;49.798;10.228;2023-02-17T03:39:50;11.10;;;6.57;;
26756;SDS011;23848;49.798;10.228;2023-02-17T03:42:19;9.40;;;6.00;;
26756;SDS011;23848;49.798;10.228;2023-02-17T03:44:47;9.55;;;6.75;;
26756;SDS011;23848;49.798;10.228;2023-02-17T03:47:15;10.77;;;6.55;;
26756;SDS011;23848;49.798;10.228;2023-02-17T03:49:44;9.90;;;6.50;;
26756;SDS011;23848;49.798;10.228;2023-02-17T03:52:12;9.20;;;6.07;;
26756;SDS011;23848;49.798;10.228;2023-02-17T03:54:42;10.77;;;6.25;;
26756;SDS011;23848;49.798;10.228;2023-02-17T03:57:10;9.77;;;6.45;;
26756;SDS011;23848;49.798;10.228;2023-02-17T03:59:38;10.02;;;6.60;;
26756;SDS011;23848;49.798;10.228;2023-02-17T04:02:07;12.40;;;6.82;;
26756;SDS011;23848;49.798;10.228;2023-02-17T04:04:35;9.85;;;6.88;;
26756;SDS011;23848;49.798;10.228;2023-02-17T04:07:04;11.75;;;5.97;;
26756;SDS011;23848;49.798;10.228;2023-02-17T04:09:32;11.68;;;6.85;;
26756;SDS011;23848;49.798;10.228;2023-02-17T04:12:02;11.98;;;6.57;;
26756;SDS011;23848;49.798;10.228;2023-02-17T04:14:30;9.00;;;6.20;;
26756;SDS011;23848;49.798;10.228;2023-02-17T04:16:59;12.07;;;6.20;;
26756;SDS011;23848;49.798;10.228;2023-02-17T04:19:27;11.35;;;6.43;;
26756;SDS011;23848;49.798;10.228;2023-02-17T04:21:55;11.70;;;7.10;;
26756;SDS011;23848;49.798;10.228;2023-02-17T04:24:24;10.05;;;6.95;;
26756;SDS011;23848;49.798;10.228;2023-02-17T04:26:52;9.18;;;5.97;;
26756;SDS011;23848;49.798;10.228;2023-02-17T04:29:22;9.50;;;6.88;;
26756;SDS011;23848;49.798;10.228;2023-02-17T04:31:50;10.43;;;6.13;;
26756;SDS011;23848;49.798;10.228;2023-02-17T04:34:18;10.30;;;6.38;;
26756;SDS011;23848;49.798;10.228;2023-02-17T04:36:47;9.40;;;5.85;;
26756;SDS011;23848;49.798;10.228;2023-02-17T04:39:15;9.23;;;6.05;;
26756;SDS011;23848;49.798;10.228;2023-02-17T04:41:43;10.20;;;6.43;;
26756;SDS011;23848;49.798;10.228;2023-02-17T04:44:12;10.18;;;6.15;;
26756;SDS011;23848;49.798;10.228;2023-02-17T04:46:41;9.15;;;5.72;;
26756;SDS011;23848;49.798;10.228;2023-02-17T04:49:10;8.88;;;5.72;;
26756;SDS011;23848;49.798;10.228;2023-02-17T04:51:38;11.82;;;6.13;;
26756;SDS011;23848;49.798;10.228;2023-02-17T04:54:06;8.45;;;5.53;;
26756;SDS011;23848;49.798;10.228;2023-02-17T04:56:34;8.63;;;5.97;;
26756;SDS011;23848;49.798;10.228;2023-02-17T04:59:03;10.88;;;6.10;;
26756;SDS011;23848;49.798;10.228;2023-02-17T05:01:31;12.13;;;6.30;;
26756;SDS011;23848;49.798;10.228;2023-02-17T05:04:01;8.93;;;5.88;;
26756;SDS011;23848;49.798;10.228;2023-02-17T05:06:29;9.32;;;6.22;;
26756;SDS011;23848;49.798;10.228;2023-02-17T05:08:57;10.32;;;6.47;;
26756;SDS011;23848;49.798;10.228;2023-02-17T05:11:26;10.13;;;6.90;;
26756;SDS011;23848;49.798;10.228;2023-02-17T05:13:54;10.30;;;5.82;;
26756;SDS011;23848;49.798;10.228;2023-02-17T05:16:23;8.50;;;6.55;;
26756;SDS011;23848;49.798;10.228;2023-02-17T05:18:51;9.85;;;6.53;;
26756;SDS011;23848;49.798;10.228;2023-02-17T05:21:23;9.95;;;6.65;;
26756;SDS011;23848;49.798;10.228;2023-02-17T05:23:51;9.63;;;5.90;;
26756;SDS011;23848;49.798;10.228;2023-02-17T05:26:20;11.18;;;6.32;;
26756;SDS011;23848;49.798;10.228;2023-02-17T05:28:48;10.35;;;5.82;;
26756;SDS011;23848;49.798;10.228;2023-02-17T05:31:16;10.18;;;6.20;;
26756;SDS011;23848;49.798;10.228;2023-02-17T05:33:45;11.02;;;6.15;;
26756;SDS011;23848;49.798;10.228;2023-02-17T05:36:13;12.73;;;6.03;;
26756;SDS011;23848;49.798;10.228;2023-02-17T05:38:43;9.68;;;5.68;;
26756;SDS011;23848;49.798;10.228;2023-02-17T05:41:14;9.73;;;6.38;;
26756;SDS011;23848;49.798;10.228;2023-02-17T05:43:42;10.60;;;6.10;;
26756;SDS011;23848;49.798;10.228;2023-02-17T05:46:11;8.55;;;6.10;;
26756;SDS011;23848;49.798;10.228;2023-02-17T05:48:39;10.98;;;5.90;;
26756;SDS011;23848;49.798;10.228;2023-02-17T05:51:07;8.65;;;5.82;;
26756;SDS011;23848;49.798;10.228;2023-02-17T05:53:36;11.48;;;6.05;;
26756;SDS011;23848;49.798;10.228;2023-02-17T05:56:06;9.85;;;6.10;;
26756;SDS011;23848;49.798;10.228;2023-02-17T05:58:34;9.52;;;5.60;;
26756;SDS011;23848;49.798;10.228;2023-02-17T06:01:06;8.73;;;5.75;;
26756;SDS011;23848;49.798;10.228;2023-02-17T06:03:34;9.82;;;5.95;;
26756;SDS011;23848;49.798;10.228;2023-02-17T06:06:02;8.05;;;5.22;;
26756;SDS011;23848;49.798;10.228;2023-02-17T06:08:31;9.13;;;5.70;;
26756;SDS011;23848;49.798;10.228;2023-02-17T06:11:00;9.90;;;5.63;;
26756;SDS011;23848;49.798;10.228;2023-02-17T06:13:29;8.55;;;5.30;;
26756;SDS011;23848;49.798;10.228;2023-02-17T06:15:58;7.82;;;5.38;;
26756;SDS011;23848;49.798;10.228;2023-02-17T06:18:26;9.30;;;5.85;;
26756;SDS011;23848;49.798;10.228;2023-02-17T06:20:55;9.13;;;5.80;;
26756;SDS011;23848;49.798;10.228;2023-02-17T06:23:23;9.68;;;6.10;;
26756;SDS011;23848;49.798;10.228;2023-02-17T06:25:52;10.00;;;6.00;;
26756;SDS011;23848;49.798;10.228;2023-02-17T06:28:20;8.50;;;5.95;;
26756;SDS011;23848;49.798;10.228;2023-02-17T06:30:50;9.93;;;6.75;;
26756;SDS011;23848;49.798;10.228;2023-02-17T06:33:18;9.65;;;6.75;;
26756;SDS011;23848;49.798;10.228;2023-02-17T06:35:47;12.98;;;6.85;;
26756;SDS011;23848;49.798;10.228;2023-02-17T06:38:16;10.75;;;6.82;;
26756;SDS011;23848;49.798;10.228;2023-02-17T06:40:44;10.48;;;7.47;;
26756;SDS011;23848;49.798;10.228;2023-02-17T06:43:12;10.23;;;7.22;;
26756;SDS011;23848;49.798;10.228;2023-02-17T06:45:41;11.02;;;7.78;;
26756;SDS011;23848;49.798;10.228;2023-02-17T06:48:11;10.65;;;7.30;;
26756;SDS011;23848;49.798;10.228;2023-02-17T06:50:39;9.57;;;7.10;;
26756;SDS011;23848;49.798;10.228;2023-02-17T06:53:07;8.95;;;6.50;;
26756;SDS011;23848;49.798;10.228;2023-02-17T06:55:35;12.38;;;7.32;;
26756;SDS011;23848;49.798;10.228;2023-02-17T06:58:04;10.98;;;7.47;;
26756;SDS011;23848;49.798;10.228;2023-02-17T07:00:33;10.48;;;7.25;;
26756;SDS011;23848;49.798;10.228;2023-02-17T07:03:01;12.65;;;7.60;;
26756;SDS011;23848;49.798;10.228;2023-02-17T07:05:32;10.10;;;7.53;;
26756;SDS011;23848;49.798;10.228;2023-02-17T07:08:01;12.27;;;7.70;;
26756;SDS011;23848;49.798;10.228;2023-02-17T07:10:30;10.82;;;7.43;;
26756;SDS011;23848;49.798;10.228;2023-02-17T07:12:58;12.43;;;6.97;;
26756;SDS011;23848;49.798;10.228;2023-02-17T07:15:27;8.57;;;6.97;;
26756;SDS011;23848;49.798;10.228;2023-02-17T07:17:55;11.35;;;7.05;;
26756;SDS011;23848;49.798;10.228;2023-02-17T07:20:23;10.60;;;7.68;;
26756;SDS011;23848;49.798;10.228;2023-02-17T07:22:53;11.07;;;7.43;;
26756;SDS011;23848;49.798;10.228;2023-02-17T07:25:21;9.88;;;7.45;;
26756;SDS011;23848;49.798;10.228;2023-02-17T07:27:50;10.85;;;7.35;;
26756;SDS011;23848;49.798;10.228;2023-02-17T07:30:18;7.43;;;6.28;;
26756;SDS011;23848;49.798;10.228;2023-02-17T07:32:46;9.15;;;6.88;;
26756;SDS011;23848;49.798;10.228;2023-02-17T07:35:15;9.60;;;6.40;;
26756;SDS011;23848;49.798;10.228;2023-02-17T07:37:43;9.63;;;7.22;;
26756;SDS011;23848;49.798;10.228;2023-02-17T07:40:13;10.23;;;6.75;;
26756;SDS011;23848;49.798;10.228;2023-02-17T07:42:41;8.65;;;6.38;;
26756;SDS011;23848;49.798;10.228;2023-02-17T07:45:09;8.35;;;5.72;;
26756;SDS011;23848;49.798;10.228;2023-02-17T07:47:38;7.68;;;6.13;;
26756;SDS011;23848;49.798;10.228;2023-02-17T07:50:06;7.18;;;5.35;;
26756;SDS011;23848;49.798;10.228;2023-02-17T07:52:35;8.80;;;5.85;;
26756;SDS011;23848;49.798;10.228;2023-02-17T07:55:03;9.63;;;6.10;;
26756;SDS011;23848;49.798;10.228;2023-02-17T07:57:33;7.55;;;5.63;;
26756;SDS011;23848;49.798;10.228;2023-02-17T08:00:02;7.90;;;5.68;;
26756;SDS011;23848;49.798;10.228;2023-02-17T08:02:30;7.72;;;5.38;;
26756;SDS011;23848;49.798;10.228;2023-02-17T08:04:59;7.40;;;4.90;;
26756;SDS011;23848;49.798;10.228;2023-02-17T08:07:27;6.28;;;4.78;;
26756;SDS011;23848;49.798;10.228;2023-02-17T08:09:57;7.43;;;5.03;;
26756;SDS011;23848;49.798;10.228;2023-02-17T08:12:44;9.13;;;4.50;;
26756;SDS011;23848;49.798;10.228;2023-02-17T08:15:31;8.50;;;4.65;;
26756;SDS011;23848;49.798;10.228;2023-02-17T08:18:00;5.63;;;3.72;;
26756;SDS011;23848;49.798;10.228;2023-02-17T08:20:30;5.85;;;4.07;;
26756;SDS011;23848;49.798;10.228;2023-02-17T08:23:00;6.55;;;4.40;;
26756;SDS011;23848;49.798;10.228;2023-02-17T08:25:30;5.78;;;4.18;;
26756;SDS011;23848;49.798;10.228;2023-02-17T08:28:00;6.32;;;4.05;;
26756;SDS011;23848;49.798;10.228;2023-02-17T08:30:29;6.50;;;3.70;;
26756;SDS011;23848;49.798;10.228;2023-02-17T08:32:59;6.13;;;4.20;;
26756;SDS011;23848;49.798;10.228;2023-02-17T08:35:27;8.30;;;4.60;;
26756;SDS011;23848;49.798;10.228;2023-02-17T08:37:55;7.63;;;3.67;;
26756;SDS011;23848;49.798;10.228;2023-02-17T08:40:24;5.85;;;3.78;;
26756;SDS011;23848;49.798;10.228;2023-02-17T08:42:52;7.03;;;4.55;;
26756;SDS011;23848;49.798;10.228;2023-02-17T08:45:22;6.53;;;3.97;;
26756;SDS011;23848;49.798;10.228;2023-02-17T08:47:51;6.15;;;4.35;;
26756;SDS011;23848;49.798;10.228;2023-02-17T08:50:19;6.22;;;3.95;;
26756;SDS011;23848;49.798;10.228;2023-02-17T08:52:48;5.43;;;3.95;;
26756;SDS011;23848;49.798;10.228;2023-02-17T08:55:17;6.70;;;3.55;;
26756;SDS011;23848;49.798;10.228;2023-02-17T08:57:48;6.45;;;3.75;;
26756;SDS011;23848;49.798;10.228;2023-02-17T09:00:16;7.95;;;3.90;;
26756;SDS011;23848;49.798;10.228;2023-02-17T09:02:46;5.72;;;3.53;;
26756;SDS011;23848;49.798;10.228;2023-02-17T09:05:14;5.70;;;3.70;;
26756;SDS011;23848;49.798;10.228;2023-02-17T09:07:43;6.40;;;3.60;;
26756;SDS011;23848;49.798;10.228;2023-02-17T09:10:11;5.10;;;3.63;;
26756;SDS011;23848;49.798;10.228;2023-02-17T09:12:40;5.95;;;3.90;;
26756;SDS011;23848;49.798;10.228;2023-02-17T09:15:08;5.80;;;3.53;;
26756;SDS011;23848;49.798;10.228;2023-02-17T09:17:37;6.78;;;3.33;;
26756;SDS011;23848;49.798;10.228;2023-02-17T09:20:08;6.35;;;3.83;;
26756;SDS011;23848;49.798;10.228;2023-02-17T09:22:50;6.10;;;3.65;;
26756;SDS011;23848;49.798;10.228;2023-02-17T09:25:18;5.55;;;3.17;;
26756;SDS011;23848;49.798;10.228;2023-02-17T09:27:46;4.75;;;3.33;;
26756;SDS011;23848;49.798;10.228;2023-02-17T09:30:15;6.20;;;3.67;;
26756;SDS011;23848;49.798;10.228;2023-02-17T09:32:43;4.60;;;3.28;;
26756;SDS011;23848;49.798;10.228;2023-02-17T09:35:13;5.40;;;3.40;;
26756;SDS011;23848;49.798;10.228;2023-02-17T09:37:42;4.90;;;3.28;;
26756;SDS011;23848;49.798;10.228;2023-02-17T09:40:14;5.82;;;3.17;;
26756;SDS011;23848;49.798;10.228;2023-02-17T09:42:42;6.70;;;4.00;;
26756;SDS011;23848;49.798;10.228;2023-02-17T09:45:12;6.38;;;3.33;;
26756;SDS011;23848;49.798;10.228;2023-02-17T09:47:46;5.15;;;3.10;;
26756;SDS011;23848;49.798;10.228;2023-02-17T09:50:17;5.60;;;3.38;;
26756;SDS011;23848;49.798;10.228;2023-02-17T09:52:48;5.15;;;3.33;;
26756;SDS011;23848;49.798;10.228;2023-02-17T09:55:21;6.10;;;3.60;;
26756;SDS011;23848;49.798;10.228;2023-02-17T09:57:52;5.85;;;3.35;;
26756;SDS011;23848;49.798;10.228;2023-02-17T10:00:22;5.20;;;3.35;;
26756;SDS011;23848;49.798;10.228;2023-02-17T10:02:54;4.60;;;3.20;;
26756;SDS011;23848;49.798;10.228;2023-02-17T10:05:27;4.68;;;2.90;;
26756;SDS011;23848;49.798;10.228;2023-02-17T10:07:58;5.10;;;2.95;;
26756;SDS011;23848;49.798;10.228;2023-02-17T10:10:28;4.28;;;3.03;;
26756;SDS011;23848;49.798;10.228;2023-02-17T10:12:58;5.78;;;3.20;;
26756;SDS011;23848;49.798;10.228;2023-02-17T10:15:29;5.15;;;2.92;;
26756;SDS011;23848;49.798;10.228;2023-02-17T10:17:59;5.53;;;3.28;;
26756;SDS011;23848;49.798;10.228;2023-02-17T10:20:33;7.25;;;3.13;;
26756;SDS011;23848;49.798;10.228;2023-02-17T10:23:03;4.32;;;2.75;;
26756;SDS011;23848;49.798;10.228;2023-02-17T10:25:40;4.50;;;2.75;;
26756;SDS011;23848;49.798;10.228;2023-02-17T10:28:14;5.00;;;2.70;;
26756;SDS011;23848;49.798;10.228;2023-02-17T10:30:46;3.42;;;2.53;;
26756;SDS011;23848;49.798;10.228;2023-02-17T10:33:18;5.40;;;2.83;;
26756;SDS011;23848;49.798;10.228;2023-02-17T10:35:50;5.72;;;2.63;;
26756;SDS011;23848;49.798;10.228;2023-02-17T10:38:25;5.18;;;3.20;;
26756;SDS011;23848;49.798;10.228;2023-02-17T10:40:58;4.80;;;2.45;;
26756;SDS011;23848;49.798;10.228;2023-02-17T10:43:27;3.92;;;2.33;;
26756;SDS011;23848;49.798;10.228;2023-02-17T10:45:57;6.60;;;3.00;;
26756;SDS011;23848;49.798;10.228;2023-02-17T10:48:27;3.60;;;2.17;;
26756;SDS011;23848;49.798;10.228;2023-02-17T10:51:00;5.30;;;2.55;;
26756;SDS011;23848;49.798;10.228;2023-02-17T10:53:30;5.13;;;2.90;;
26756;SDS011;23848;49.798;10.228;2023-02-17T10:56:00;4.10;;;2.50;;
26756;SDS011;23848;49.798;10.228;2023-02-17T10:58:31;4.18;;;2.25;;
26756;SDS011;23848;49.798;10.228;2023-02-17T11:01:01;4.25;;;2.28;;
26756;SDS011;23848;49.798;10.228;2023-02-17T11:03:34;4.32;;;2.15;;
26756;SDS011;23848;49.798;10.228;2023-02-17T11:06:05;3.92;;;2.42;;
26756;SDS011;23848;49.798;10.228;2023-02-17T11:08:43;4.15;;;2.30;;
26756;SDS011;23848;49.798;10.228;2023-02-17T11:11:13;4.13;;;2.05;;
26756;SDS011;23848;49.798;10.228;2023-02-17T11:14:00;3.95;;;2.25;;
26756;SDS011;23848;49.798;10.228;2023-02-17T11:16:32;3.97;;;2.28;;
26756;SDS011;23848;49.798;10.228;2023-02-17T11:19:01;4.38;;;2.25;;
26756;SDS011;23848;49.798;10.228;2023-02-17T11:21:30;3.47;;;1.90;;
26756;SDS011;23848;49.798;10.228;2023-02-17T11:24:00;3.47;;;2.15;;
26756;SDS011;23848;49.798;10.228;2023-02-17T11:26:30;3.72;;;2.17;;
26756;SDS011;23848;49.798;10.228;2023-02-17T11:29:08;3.15;;;2.45;;
26756;SDS011;23848;49.798;10.228;2023-02-17T11:31:37;3.35;;;1.83;;
26756;SDS011;23848;49.798;10.228;2023-02-17T11:34:12;3.47;;;2.00;;
26756;SDS011;23848;49.798;10.228;2023-02-17T11:36:43;3.53;;;1.70;;
26756;SDS011;23848;49.798;10.228;2023-02-17T11:39:18;3.15;;;1.90;;
26756;SDS011;23848;49.798;10.228;2023-02-17T11:41:47;2.80;;;1.85;;
26756;SDS011;23848;49.798;10.228;2023-02-17T11:44:21;2.70;;;1.73;;
26756;SDS011;23848;49.798;10.228;2023-02-17T11:46:51;2.90;;;1.90;;
26756;SDS011;23848;49.798;10.228;2023-02-17T11:49:32;2.78;;;1.70;;
26756;SDS011;23848;49.798;10.228;2023-02-17T11:52:08;3.55;;;2.10;;
26756;SDS011;23848;49.798;10.228;2023-02-17T11:54:43;3.83;;;1.98;;
26756;SDS011;23848;49.798;10.228;2023-02-17T11:57:17;3.03;;;1.52;;
26756;SDS011;23848;49.798;10.228;2023-02-17T11:59:56;3.63;;;1.90;;
26756;SDS011;23848;49.798;10.228;2023-02-17T12:02:34;2.65;;;1.65;;
26756;SDS011;23848;49.798;10.228;2023-02-17T12:05:10;3.33;;;1.77;;
26756;SDS011;23848;49.798;10.228;2023-02-17T12:07:48;2.92;;;1.65;;
26756;SDS011;23848;49.798;10.228;2023-02-17T12:10:21;3.33;;;1.88;;
26756;SDS011;23848;49.798;10.228;2023-02-17T12:12:56;2.63;;;1.73;;
26756;SDS011;23848;49.798;10.228;2023-02-17T12:15:38;3.40;;;2.03;;
26756;SDS011;23848;49.798;10.228;2023-02-17T12:18:14;3.13;;;1.92;;
26756;SDS011;23848;49.798;10.228;2023-02-17T12:23:18;3.35;;;2.03;;
26756;SDS011;23848;49.798;10.228;2023-02-17T12:25:49;3.00;;;1.75;;
26756;SDS011;23848;49.798;10.228;2023-02-17T12:28:33;3.85;;;1.90;;
26756;SDS011;23848;49.798;10.228;2023-02-17T12:31:05;3.38;;;2.10;;
26756;SDS011;23848;49.798;10.228;2023-02-17T12:33:43;2.85;;;2.17;;
26756;SDS011;23848;49.798;10.228;2023-02-17T12:36:14;3.50;;;1.95;;
26756;SDS011;23848;49.798;10.228;2023-02-17T12:38:45;7.15;;;5.00;;
26756;SDS011;23848;49.798;10.228;2023-02-17T12:41:15;7.60;;;4.00;;
26756;SDS011;23848;49.798;10.228;2023-02-17T12:43:45;9.98;;;6.32;;
26756;SDS011;23848;49.798;10.228;2023-02-17T12:46:15;6.82;;;3.40;;
26756;SDS011;23848;49.798;10.228;2023-02-17T12:48:44;4.40;;;3.15;;
26756;SDS011;23848;49.798;10.228;2023-02-17T12:51:20;4.40;;;2.45;;
26756;SDS011;23848;49.798;10.228;2023-02-17T12:53:50;4.07;;;2.60;;
26756;SDS011;23848;49.798;10.228;2023-02-17T12:59:04;5.27;;;2.87;;
26756;SDS011;23848;49.798;10.228;2023-02-17T13:01:37;3.78;;;2.38;;
26756;SDS011;23848;49.798;10.228;2023-02-17T13:04:09;4.63;;;3.03;;
26756;SDS011;23848;49.798;10.228;2023-02-17T13:06:41;3.92;;;2.50;;
26756;SDS011;23848;49.798;10.228;2023-02-17T13:09:16;5.03;;;2.38;;
26756;SDS011;23848;49.798;10.228;2023-02-17T13:11:48;4.03;;;2.70;;
26756;SDS011;23848;49.798;10.228;2023-02-17T13:14:23;4.47;;;2.97;;
26756;SDS011;23848;49.798;10.228;2023-02-17T13:16:52;4.30;;;2.80;;
26756;SDS011;23848;49.798;10.228;2023-02-17T13:19:27;5.15;;;3.08;;
26756;SDS011;23848;49.798;10.228;2023-02-17T13:21:57;3.75;;;2.47;;
26756;SDS011;23848;49.798;10.228;2023-02-17T13:24:32;6.97;;;3.05;;
26756;SDS011;23848;49.798;10.228;2023-02-17T13:27:08;3.67;;;2.70;;
26756;SDS011;23848;49.798;10.228;2023-02-17T13:29:38;4.20;;;2.90;;
26756;SDS011;23848;49.798;10.228;2023-02-17T13:32:09;6.40;;;3.90;;
26756;SDS011;23848;49.798;10.228;2023-02-17T13:34:39;6.78;;;3.95;;
26756;SDS011;23848;49.798;10.228;2023-02-17T13:37:16;3.80;;;2.63;;
26756;SDS011;23848;49.798;10.228;2023-02-17T13:39:46;5.00;;;3.33;;
26756;SDS011;23848;49.798;10.228;2023-02-17T13:42:33;4.93;;;3.35;;
26756;SDS011;23848;49.798;10.228;2023-02-17T13:45:10;6.18;;;3.42;;
26756;SDS011;23848;49.798;10.228;2023-02-17T13:47:38;3.72;;;2.80;;
26756;SDS011;23848;49.798;10.228;2023-02-17T13:50:23;5.50;;;2.70;;
26756;SDS011;23848;49.798;10.228;2023-02-17T13:52:53;7.20;;;4.78;;
26756;SDS011;23848;49.798;10.228;2023-02-17T13:55:23;5.28;;;3.15;;
26756;SDS011;23848;49.798;10.228;2023-02-17T13:57:52;3.63;;;2.30;;
26756;SDS011;23848;49.798;10.228;2023-02-17T14:00:21;3.53;;;2.40;;
26756;SDS011;23848;49.798;10.228;2023-02-17T14:02:50;4.18;;;2.60;;
26756;SDS011;23848;49.798;10.228;2023-02-17T14:05:20;4.55;;;2.80;;
26756;SDS011;23848;49.798;10.228;2023-02-17T14:07:55;3.60;;;2.33;;
26756;SDS011;23848;49.798;10.228;2023-02-17T14:10:26;3.70;;;2.45;;
26756;SDS011;23848;49.798;10.228;2023-02-17T14:12:54;3.10;;;2.00;;
26756;SDS011;23848;49.798;10.228;2023-02-17T14:15:24;4.13;;;2.78;;
26756;SDS011;23848;49.798;10.228;2023-02-17T14:17:53;3.15;;;2.10;;
26756;SDS011;23848;49.798;10.228;2023-02-17T14:20:26;3.80;;;1.98;;
26756;SDS011;23848;49.798;10.228;2023-02-17T14:22:58;3.90;;;2.13;;
26756;SDS011;23848;49.798;10.228;2023-02-17T14:25:53;3.00;;;1.80;;
26756;SDS011;23848;49.798;10.228;2023-02-17T14:28:23;2.70;;;1.80;;
26756;SDS011;23848;49.798;10.228;2023-02-17T14:30:54;2.92;;;1.90;;
26756;SDS011;23848;49.798;10.228;2023-02-17T14:33:23;3.38;;;1.77;;
26756;SDS011;23848;49.798;10.228;2023-02-17T14:35:53;3.08;;;1.88;;
26756;SDS011;23848;49.798;10.228;2023-02-17T14:38:25;3.40;;;2.20;;
26756;SDS011;23848;49.798;10.228;2023-02-17T14:40:58;3.00;;;1.77;;
26756;SDS011;23848;49.798;10.228;2023-02-17T14:43:26;3.00;;;2.05;;
26756;SDS011;23848;49.798;10.228;2023-02-17T14:45:58;2.85;;;1.65;;
26756;SDS011;23848;49.798;10.228;2023-02-17T14:48:26;3.10;;;1.90;;
26756;SDS011;23848;49.798;10.228;2023-02-17T14:50:55;3.88;;;2.03;;
26756;SDS011;23848;49.798;10.228;2023-02-17T14:53:27;3.47;;;1.90;;
26756;SDS011;23848;49.798;10.228;2023-02-17T14:55:57;3.30;;;1.88;;